Time;durP1;ratioP1;P1;durP2;ratioP2;P2;SDS_P1;SDS_P2;PMS_P1;PMS_P2;Temp;Humidity;BMP_temperature;BMP_pressure;BME280_temperature;BME280_humidity;BME280_pressure;Samples;Min_cycle;Max_cycle;Signal;HPM_P1;HPM_P2
2023/03/06 00:00:54;;;;;;;11.13;7.60;;;;;;;3.50;nan;97353.03;5076800;28;20204;-75
2023/03/06 00:03:22;;;;;;;12.13;8.33;;;;;;;3.54;nan;97345.56;5075139;28;20235;-74
2023/03/06 00:05:49;;;;;;;11.27;8.60;;;;;;;3.56;nan;97348.78;5076664;28;20200;-74
2023/03/06 00:08:15;;;;;;;10.80;8.23;;;;;;;3.50;nan;97341.69;5075293;28;20205;-75
2023/03/06 00:10:42;;;;;;;12.00;8.27;;;;;;;3.55;nan;97348.00;5076605;28;20208;-74
2023/03/06 00:13:13;;;;;;;13.60;8.93;;;;;;;3.54;nan;97343.75;5074768;28;20221;-74
2023/03/06 00:15:40;;;;;;;11.37;8.50;;;;;;;3.49;nan;97354.03;5076329;28;20223;-74
2023/03/06 00:18:07;;;;;;;12.30;8.80;;;;;;;3.51;nan;97351.19;5074801;28;20209;-74
2023/03/06 00:20:34;;;;;;;11.00;8.63;;;;;;;3.49;nan;97353.19;5065466;28;20201;-74
2023/03/06 00:23:01;;;;;;;12.87;8.50;;;;;;;3.44;nan;97339.84;5055936;28;20236;-74
2023/03/06 00:25:27;;;;;;;10.10;7.97;;;;;;;3.43;nan;97333.75;5063703;28;20207;-74
2023/03/06 00:27:53;;;;;;;12.43;8.53;;;;;;;3.37;nan;97329.28;5075968;28;20667;-74
2023/03/06 00:30:23;;;;;;;13.27;9.00;;;;;;;3.36;nan;97324.22;5074832;28;20656;-74
2023/03/06 00:32:49;;;;;;;16.03;9.40;;;;;;;3.30;nan;97323.16;5075846;28;20231;-74
2023/03/06 00:35:16;;;;;;;13.47;9.10;;;;;;;3.31;nan;97321.34;5074198;28;20208;-74
2023/03/06 00:37:43;;;;;;;12.27;8.93;;;;;;;3.21;nan;97324.28;5075751;28;20691;-75
2023/03/06 00:40:13;;;;;;;13.33;9.77;;;;;;;3.29;nan;97331.25;5073141;28;20211;-74
2023/03/06 00:42:40;;;;;;;12.70;9.37;;;;;;;3.26;nan;97318.47;5075872;28;20232;-74
2023/03/06 00:45:07;;;;;;;13.97;9.37;;;;;;;3.21;nan;97313.00;5074509;28;20211;-74
2023/03/06 00:47:34;;;;;;;12.57;8.47;;;;;;;3.26;nan;97313.22;5076016;28;20216;-75
2023/03/06 00:50:00;;;;;;;13.63;9.50;;;;;;;3.36;nan;97308.44;5069666;28;20573;-75
2023/03/06 00:52:27;;;;;;;12.97;9.40;;;;;;;3.39;nan;97310.69;5055530;28;20225;-74
2023/03/06 00:54:53;;;;;;;14.40;9.70;;;;;;;3.40;nan;97307.06;5055555;28;20205;-74
2023/03/06 00:57:19;;;;;;;13.07;9.27;;;;;;;3.34;nan;97303.38;5055382;28;20206;-74
2023/03/06 00:59:46;;;;;;;14.37;9.17;;;;;;;3.36;nan;97309.28;5064998;28;20282;-74
2023/03/06 01:02:12;;;;;;;12.17;9.00;;;;;;;3.35;nan;97302.38;5075548;28;20224;-74
2023/03/06 01:04:39;;;;;;;12.60;9.57;;;;;;;3.28;nan;97296.28;5074091;28;20667;-74
2023/03/06 01:07:05;;;;;;;13.07;8.70;;;;;;;3.25;nan;97293.22;5075517;28;20231;-74
2023/03/06 01:09:32;;;;;;;11.77;9.00;;;;;;;3.22;nan;97286.53;5074055;28;20204;-75
2023/03/06 01:11:58;;;;;;;13.57;9.20;;;;;;;3.25;nan;97286.16;5074481;28;20229;-74
2023/03/06 01:14:25;;;;;;;11.93;8.80;;;;;;;3.28;nan;97288.41;5074614;28;20205;-74
2023/03/06 01:16:51;;;;;;;12.70;8.60;;;;;;;3.21;nan;97281.47;5075041;28;20212;-74
2023/03/06 01:19:18;;;;;;;12.53;8.90;;;;;;;3.14;nan;97285.84;5074256;28;20200;-74
2023/03/06 01:21:44;;;;;;;10.63;8.10;;;;;;;3.14;nan;97280.59;5074304;28;20204;-74
2023/03/06 01:24:10;;;;;;;13.43;8.93;;;;;;;3.18;nan;97274.78;5074130;28;20213;-74
2023/03/06 01:26:37;;;;;;;12.43;8.37;;;;;;;3.21;nan;97274.41;5075204;28;20200;-74
2023/03/06 01:29:03;;;;;;;11.80;8.63;;;;;;;3.23;nan;97271.59;5072406;28;20220;-74
2023/03/06 01:31:30;;;;;;;12.80;8.60;;;;;;;3.21;nan;97269.13;5055341;28;20579;-74
2023/03/06 01:33:56;;;;;;;14.60;8.77;;;;;;;3.12;nan;97283.41;5055148;28;20205;-74
2023/03/06 01:36:23;;;;;;;11.37;8.50;;;;;;;3.13;nan;97271.13;5054625;28;20209;-74
2023/03/06 01:38:49;;;;;;;12.90;8.37;;;;;;;3.20;nan;97271.97;5054932;28;20300;-74
2023/03/06 01:41:16;;;;;;;14.07;9.00;;;;;;;3.20;nan;97271.97;5054280;28;20206;-74
2023/03/06 01:43:44;;;;;;;11.53;8.57;;;;;;;3.27;nan;97264.94;5054767;28;20236;-74
2023/03/06 01:46:28;;;;;;;12.70;8.40;;;;;;;3.21;nan;97271.75;5054232;28;20579;-74
2023/03/06 01:49:17;;;;;;;14.23;8.40;;;;;;;3.24;nan;97266.16;5054535;28;20189;-74
2023/03/06 01:52:13;;;;;;;14.73;9.20;;;;;;;3.16;nan;97254.97;5054205;28;20237;-75
2023/03/06 01:54:51;;;;;;;10.60;7.57;;;;;;;3.12;nan;97251.13;5053063;28;20205;-74
2023/03/06 01:57:22;;;;;;;11.20;8.27;;;;;;;3.14;nan;97254.34;5054688;28;20189;-74
2023/03/06 01:59:55;;;;;;;10.10;8.13;;;;;;;3.15;nan;97251.53;5054395;28;20201;-74
2023/03/06 02:02:22;;;;;;;13.33;8.40;;;;;;;3.16;nan;97250.53;5054686;28;20240;-74
2023/03/06 02:04:48;;;;;;;10.47;7.40;;;;;;;3.14;nan;97235.97;5057553;28;20200;-74
2023/03/06 02:07:18;;;;;;;10.37;7.77;;;;;;;3.12;nan;97230.09;5061328;28;20209;-74
2023/03/06 02:09:44;;;;;;;13.17;8.67;;;;;;;3.14;nan;97223.66;5058440;28;20209;-74
2023/03/06 02:12:14;;;;;;;12.03;8.40;;;;;;;3.17;nan;97219.84;5073051;28;20212;-75
2023/03/06 02:14:42;;;;;;;10.33;8.00;;;;;;;3.17;nan;97219.84;5066225;28;20212;-75
2023/03/06 02:17:10;;;;;;;10.60;7.93;;;;;;;3.20;nan;97222.09;5070306;28;20675;-75
2023/03/06 02:19:45;;;;;;;9.87;7.60;;;;;;;3.30;nan;97214.66;5054233;28;20209;-75
2023/03/06 02:22:11;;;;;;;11.03;8.37;;;;;;;3.22;nan;97212.19;5055494;28;20228;-74
2023/03/06 02:24:49;;;;;;;11.13;7.70;;;;;;;3.18;nan;97209.16;5074065;28;20227;-74
2023/03/06 02:27:17;;;;;;;12.07;7.87;;;;;;;3.16;nan;97207.72;5063117;28;20288;-74
2023/03/06 02:29:44;;;;;;;11.50;8.07;;;;;;;3.17;nan;97206.72;5053692;28;20211;-74
2023/03/06 02:32:11;;;;;;;11.07;7.67;;;;;;;3.20;nan;97203.72;5071751;28;20224;-74
2023/03/06 02:34:37;;;;;;;11.70;7.70;;;;;;;3.22;nan;97196.44;5073650;28;20216;-75
2023/03/06 02:37:09;;;;;;;11.73;8.30;;;;;;;3.19;nan;97196.81;5055371;28;20213;-75
2023/03/06 02:39:40;;;;;;;10.30;7.93;;;;;;;3.14;nan;97194.78;5053880;28;20231;-75
2023/03/06 02:42:06;;;;;;;11.93;8.00;;;;;;;3.17;nan;97193.56;5053196;28;20232;-74
2023/03/06 02:44:34;;;;;;;10.70;7.70;;;;;;;3.17;nan;97188.31;5053798;28;20215;-74
2023/03/06 02:47:01;;;;;;;12.13;8.20;;;;;;;3.16;nan;97187.50;5059140;28;20682;-74
2023/03/06 02:49:27;;;;;;;11.43;7.70;;;;;;;3.15;nan;97187.69;5073787;28;20205;-74
2023/03/06 02:51:54;;;;;;;9.87;8.00;;;;;;;3.15;nan;97180.63;5058493;28;20229;-74
2023/03/06 02:54:20;;;;;;;11.30;8.27;;;;;;;3.12;nan;97181.00;5053340;28;20288;-74
2023/03/06 02:56:47;;;;;;;10.63;8.10;;;;;;;3.08;nan;97181.59;5065178;28;20659;-74
2023/03/06 02:59:13;;;;;;;9.50;7.50;;;;;;;3.09;nan;97180.59;5073292;28;20563;-74
2023/03/06 03:01:39;;;;;;;9.73;8.07;;;;;;;3.07;nan;97180.00;5060799;28;20201;-74
2023/03/06 03:04:06;;;;;;;13.13;8.60;;;;;;;3.08;nan;97186.84;5053375;28;20328;-74
2023/03/06 03:06:32;;;;;;;11.63;8.17;;;;;;;3.06;nan;97188.84;5052628;28;20205;-74
2023/03/06 03:08:58;;;;;;;10.80;7.70;;;;;;;3.02;nan;97177.13;5053053;28;20664;-74
2023/03/06 03:11:25;;;;;;;13.03;8.60;;;;;;;3.01;nan;97176.31;5053244;28;20603;-74
2023/03/06 03:13:51;;;;;;;10.87;8.20;;;;;;;2.99;nan;97177.50;5053312;28;20218;-74
2023/03/06 03:16:17;;;;;;;10.13;8.00;;;;;;;3.02;nan;97177.13;5052562;28;20219;-74
2023/03/06 03:18:46;;;;;;;10.87;7.70;;;;;;;3.04;nan;97172.50;5054132;28;20205;-74
2023/03/06 03:21:14;;;;;;;9.07;7.23;;;;;;;2.94;nan;97170.19;5062272;28;20204;-74
2023/03/06 03:23:41;;;;;;;12.43;8.50;;;;;;;2.99;nan;97162.56;5077423;28;20319;-74
2023/03/06 03:26:15;;;;;;;9.77;7.67;;;;;;;2.99;nan;97167.00;5069815;28;20202;-74
2023/03/06 03:28:42;;;;;;;12.50;7.80;;;;;;;3.01;nan;97165.00;5057034;28;20232;-74
2023/03/06 03:31:10;;;;;;;11.13;7.57;;;;;;;3.05;nan;97160.97;5063127;28;20200;-74
2023/03/06 03:33:38;;;;;;;11.50;7.90;;;;;;;3.02;nan;97158.75;5077225;28;20220;-74
2023/03/06 03:36:07;;;;;;;12.30;8.63;;;;;;;2.93;nan;97152.84;5069730;28;20205;-74
2023/03/06 03:38:34;;;;;;;12.20;8.17;;;;;;;2.97;nan;97154.06;5056839;28;20220;-74
2023/03/06 03:41:01;;;;;;;9.80;7.60;;;;;;;2.92;nan;97159.09;5056659;28;20208;-74
2023/03/06 03:43:27;;;;;;;8.93;7.73;;;;;;;2.93;nan;97163.34;5056980;28;20232;-74
2023/03/06 03:45:54;;;;;;;12.27;8.30;;;;;;;2.90;nan;97149.78;5056435;28;20208;-74
2023/03/06 03:48:21;;;;;;;9.07;7.77;;;;;;;2.97;nan;97159.31;5056908;28;20211;-74
2023/03/06 03:50:47;;;;;;;9.73;7.60;;;;;;;2.89;nan;97150.81;5056656;28;20203;-74
2023/03/06 03:53:13;;;;;;;10.13;7.80;;;;;;;2.88;nan;97143.91;5056751;28;20228;-74
2023/03/06 03:55:40;;;;;;;9.23;7.37;;;;;;;2.91;nan;97152.22;5058355;28;20219;-74
2023/03/06 03:58:06;;;;;;;10.83;8.43;;;;;;;2.86;nan;97145.94;5076772;28;20209;-74
2023/03/06 04:00:33;;;;;;;12.60;8.53;;;;;;;2.88;nan;97151.78;5073901;28;20693;-74
2023/03/06 04:02:59;;;;;;;10.80;8.07;;;;;;;2.83;nan;97151.56;5056565;28;20229;-74
2023/03/06 04:05:25;;;;;;;13.07;8.20;;;;;;;2.79;nan;97137.19;5055774;28;20235;-74
2023/03/06 04:07:52;;;;;;;10.97;8.07;;;;;;;2.79;nan;97145.06;5056630;28;20201;-74
2023/03/06 04:10:18;;;;;;;12.13;8.43;;;;;;;2.87;nan;97144.91;5056587;28;20208;-74
2023/03/06 04:12:44;;;;;;;9.43;8.33;;;;;;;2.86;nan;97135.44;5056442;28;20228;-74
2023/03/06 04:15:11;;;;;;;10.87;8.20;;;;;;;2.74;nan;97126.47;5056059;28;20209;-74
2023/03/06 04:17:37;;;;;;;11.17;7.73;;;;;;;2.79;nan;97129.31;5073659;28;20292;-74
2023/03/06 04:20:04;;;;;;;10.73;8.10;;;;;;;2.79;nan;97127.50;5076059;28;20685;-74
2023/03/06 04:22:30;;;;;;;10.53;7.47;;;;;;;2.83;nan;97125.31;5057981;28;20222;-74
2023/03/06 04:24:57;;;;;;;11.20;8.00;;;;;;;2.85;nan;97125.94;5055938;28;20669;-74
2023/03/06 04:27:23;;;;;;;9.80;8.00;;;;;;;2.74;nan;97129.09;5055757;28;20270;-74
2023/03/06 04:29:50;;;;;;;9.33;7.53;;;;;;;2.77;nan;97118.22;5055992;28;20209;-74
2023/03/06 04:32:16;;;;;;;11.37;7.80;;;;;;;2.79;nan;97124.88;5069309;28;20224;-74
2023/03/06 04:34:42;;;;;;;10.53;7.97;;;;;;;2.78;nan;97125.91;5075668;28;20201;-74
2023/03/06 04:37:23;;;;;;;10.77;8.00;;;;;;;2.78;nan;97122.44;5058651;28;20209;-74
2023/03/06 04:39:49;;;;;;;9.53;7.90;;;;;;;2.75;nan;97113.16;5056112;28;20189;-74
2023/03/06 04:42:16;;;;;;;10.57;7.77;;;;;;;2.74;nan;97110.72;5054943;28;20225;-74
2023/03/06 04:44:43;;;;;;;10.97;7.73;;;;;;;2.74;nan;97108.09;5055358;28;20221;-74
2023/03/06 04:47:10;;;;;;;9.97;7.33;;;;;;;2.74;nan;97100.22;5054724;28;20656;-74
2023/03/06 04:49:36;;;;;;;11.17;7.97;;;;;;;2.73;nan;97112.53;5055688;28;20235;-74
2023/03/06 04:52:04;;;;;;;9.47;7.50;;;;;;;2.73;nan;97115.16;5055125;28;20751;-74
2023/03/06 04:54:30;;;;;;;9.37;7.80;;;;;;;2.76;nan;97108.72;5055380;28;20212;-74
2023/03/06 04:56:57;;;;;;;8.60;7.43;;;;;;;2.79;nan;97106.53;5055049;28;20225;-74
2023/03/06 04:59:24;;;;;;;9.50;6.77;;;;;;;2.78;nan;97107.53;5055608;28;20707;-74
2023/03/06 05:01:51;;;;;;;7.80;6.70;;;;;;;2.81;nan;97109.78;5054994;28;20232;-74
2023/03/06 05:04:17;;;;;;;10.10;7.07;;;;;;;2.78;nan;97104.91;5055015;28;20225;-74
2023/03/06 05:06:43;;;;;;;9.90;7.13;;;;;;;2.85;nan;97107.56;5054107;28;20672;-74
2023/03/06 05:09:10;;;;;;;9.90;6.40;;;;;;;2.88;nan;97105.34;5054840;28;20778;-74
2023/03/06 05:11:36;;;;;;;9.23;6.60;;;;;;;2.87;nan;97100.28;5064034;28;20207;-74
2023/03/06 05:14:02;;;;;;;9.17;6.87;;;;;;;2.90;nan;97102.53;5075360;28;20206;-74
2023/03/06 05:16:29;;;;;;;10.23;7.40;;;;;;;2.87;nan;97098.50;5073709;28;20212;-74
2023/03/06 05:18:55;;;;;;;8.77;6.80;;;;;;;2.84;nan;97105.97;5075118;28;20208;-74
2023/03/06 05:21:21;;;;;;;8.70;6.47;;;;;;;2.83;nan;97101.69;5066423;28;20202;-74
2023/03/06 05:23:48;;;;;;;9.37;7.13;;;;;;;2.81;nan;97099.28;5054218;28;20700;-74
2023/03/06 05:26:15;;;;;;;9.97;6.93;;;;;;;2.88;nan;97104.53;5054183;28;20570;-74
2023/03/06 05:28:42;;;;;;;9.77;6.87;;;;;;;2.87;nan;97100.28;5054761;28;20220;-74
2023/03/06 05:31:08;;;;;;;9.90;6.57;;;;;;;2.85;nan;97103.09;5054119;28;20580;-74
2023/03/06 05:33:35;;;;;;;8.10;6.47;;;;;;;2.82;nan;97105.31;5054571;28;20218;-74
2023/03/06 05:36:02;;;;;;;8.27;7.00;;;;;;;2.82;nan;97102.69;5057573;28;20200;-74
2023/03/06 05:38:28;;;;;;;7.83;6.87;;;;;;;2.82;nan;97098.28;5074786;28;20550;-74
2023/03/06 05:40:55;;;;;;;8.93;6.73;;;;;;;2.94;nan;97088.03;5070481;28;20695;-74
2023/03/06 05:43:21;;;;;;;9.80;7.07;;;;;;;2.89;nan;97090.44;5054105;28;20699;-74
2023/03/06 05:45:49;;;;;;;8.70;7.03;;;;;;;2.90;nan;97090.25;5052625;28;20205;-74
2023/03/06 05:48:15;;;;;;;8.57;7.10;;;;;;;2.94;nan;97093.28;5054307;28;20230;-74
2023/03/06 05:50:42;;;;;;;9.53;7.60;;;;;;;2.99;nan;97088.25;5054104;28;20680;-73
2023/03/06 05:53:08;;;;;;;9.27;7.17;;;;;;;2.84;nan;97091.00;5074023;28;20220;-74
2023/03/06 05:55:35;;;;;;;10.53;7.63;;;;;;;2.91;nan;97086.59;5073907;28;20208;-73
2023/03/06 05:58:01;;;;;;;9.37;7.17;;;;;;;2.89;nan;97093.06;5073249;28;20656;-74
2023/03/06 06:00:27;;;;;;;10.43;7.80;;;;;;;2.87;nan;97084.56;5073300;28;20540;-74
2023/03/06 06:02:54;;;;;;;9.80;7.57;;;;;;;2.89;nan;97088.59;5071842;28;20239;-74
2023/03/06 06:05:20;;;;;;;10.47;7.17;;;;;;;2.88;nan;97089.59;5072934;28;20664;-75
2023/03/06 06:07:47;;;;;;;8.87;7.23;;;;;;;2.89;nan;97083.34;5072043;28;20205;-74
2023/03/06 06:10:13;;;;;;;10.07;7.17;;;;;;;2.93;nan;97087.22;5074490;28;20217;-74
2023/03/06 06:12:40;;;;;;;8.43;7.37;;;;;;;3.07;nan;97090.72;5055868;28;20225;-74
2023/03/06 06:15:07;;;;;;;10.27;7.10;;;;;;;2.99;nan;97094.28;5053338;28;20205;-74
2023/03/06 06:17:34;;;;;;;10.17;6.63;;;;;;;2.95;nan;97089.66;5059803;28;20583;-74
2023/03/06 06:20:00;;;;;;;10.50;7.40;;;;;;;2.96;nan;97088.63;5073150;28;20208;-74
2023/03/06 06:22:26;;;;;;;9.30;6.70;;;;;;;3.04;nan;97099.81;5053951;28;20233;-74
2023/03/06 06:24:53;;;;;;;8.63;6.70;;;;;;;3.07;nan;97085.47;5052306;28;20228;-72
2023/03/06 06:27:19;;;;;;;9.70;7.10;;;;;;;3.02;nan;97095.75;5056453;28;20516;-74
2023/03/06 06:29:45;;;;;;;9.97;6.53;;;;;;;3.02;nan;97088.66;5068860;28;20205;-74
2023/03/06 06:32:12;;;;;;;8.43;6.27;;;;;;;3.03;nan;97103.41;5063811;28;20251;-74
2023/03/06 06:34:38;;;;;;;8.90;6.90;;;;;;;3.04;nan;97093.72;5053438;28;20207;-74
2023/03/06 06:37:05;;;;;;;9.03;6.97;;;;;;;3.06;nan;97102.19;5052688;28;20202;-73
2023/03/06 06:39:31;;;;;;;9.37;7.53;;;;;;;3.04;nan;97093.72;5053527;28;20298;-74
2023/03/06 06:41:58;;;;;;;9.53;7.00;;;;;;;2.96;nan;97101.75;5054197;28;20248;-74
2023/03/06 06:44:24;;;;;;;10.93;7.13;;;;;;;3.03;nan;97094.75;5064525;28;20315;-74
2023/03/06 06:46:50;;;;;;;9.43;7.07;;;;;;;2.97;nan;97101.56;5070924;28;20204;-74
2023/03/06 06:49:17;;;;;;;10.60;7.67;;;;;;;3.06;nan;97095.16;5073140;28;20214;-74
2023/03/06 06:51:43;;;;;;;10.87;7.97;;;;;;;2.97;nan;97092.88;5069389;28;20215;-74
2023/03/06 06:54:11;;;;;;;10.57;8.03;;;;;;;3.04;nan;97093.72;5062617;28;20200;-74
2023/03/06 06:56:37;;;;;;;8.83;6.63;;;;;;;3.03;nan;97089.50;5065812;28;20213;-74
2023/03/06 06:59:04;;;;;;;10.80;7.90;;;;;;;3.04;nan;97099.81;5056015;28;20208;-74
2023/03/06 07:01:31;;;;;;;10.73;7.33;;;;;;;3.10;nan;97095.56;5060311;28;20228;-74
2023/03/06 07:03:57;;;;;;;10.77;7.33;;;;;;;3.12;nan;97098.81;5052641;28;20224;-74
2023/03/06 07:06:24;;;;;;;10.80;7.70;;;;;;;3.10;nan;97095.56;5051113;28;20205;-73
2023/03/06 07:08:50;;;;;;;9.23;6.93;;;;;;;3.16;nan;97094.81;5052458;28;20205;-73
2023/03/06 07:11:18;;;;;;;11.33;8.17;;;;;;;3.14;nan;97107.31;5051517;28;20541;-73
2023/03/06 07:13:45;;;;;;;10.03;7.70;;;;;;;3.20;nan;97098.66;5060889;28;20220;-73
2023/03/06 07:16:12;;;;;;;13.87;7.80;;;;;;;3.18;nan;97101.47;5051816;28;20227;-73
2023/03/06 07:18:39;;;;;;;8.73;7.03;;;;;;;3.26;nan;97111.00;5052298;28;20626;-73
2023/03/06 07:21:06;;;;;;;7.73;6.93;;;;;;;3.28;nan;97103.72;5050931;28;20201;-73
2023/03/06 07:23:32;;;;;;;10.87;7.73;;;;;;;3.34;nan;97108.22;5051864;28;20676;-73
2023/03/06 07:25:59;;;;;;;10.47;7.43;;;;;;;3.33;nan;97114.44;5049706;28;20209;-73
2023/03/06 07:28:25;;;;;;;10.17;7.10;;;;;;;3.41;nan;97116.91;5051696;28;20205;-73
2023/03/06 07:30:52;;;;;;;12.57;8.00;;;;;;;3.45;nan;97110.25;5052263;28;20212;-73
2023/03/06 07:33:18;;;;;;;11.13;8.23;;;;;;;3.52;nan;97109.25;5051351;28;20229;-74
2023/03/06 07:35:45;;;;;;;13.50;8.37;;;;;;;3.51;nan;97117.34;5052281;28;20212;-74
2023/03/06 07:38:11;;;;;;;11.80;8.03;;;;;;;3.55;nan;97111.50;5051463;28;20674;-74
2023/03/06 07:40:38;;;;;;;10.20;7.10;;;;;;;3.58;nan;97115.56;5051791;28;20221;-72
2023/03/06 07:43:05;;;;;;;9.27;7.00;;;;;;;3.66;nan;97118.00;5058377;28;20726;-72
2023/03/06 07:45:31;;;;;;;9.67;7.30;;;;;;;3.63;nan;97128.91;5070876;28;20228;-72
2023/03/06 07:47:58;;;;;;;11.43;8.20;;;;;;;3.70;nan;97125.28;5052776;28;20291;-71
2023/03/06 07:50:25;;;;;;;12.07;7.83;;;;;;;3.79;nan;97121.47;5052363;28;20244;-72
2023/03/06 07:52:52;;;;;;;11.33;6.87;;;;;;;3.73;nan;97118.81;5069568;28;20224;-72
2023/03/06 07:55:19;;;;;;;8.47;7.20;;;;;;;3.81;nan;97126.53;5069022;28;20587;-72
2023/03/06 07:57:46;;;;;;;10.27;6.73;;;;;;;3.79;nan;97131.19;5051766;28;20227;-72
2023/03/06 08:00:15;;;;;;;7.67;6.30;;;;;;;3.79;nan;97129.34;5051153;28;20212;-72
2023/03/06 08:02:42;;;;;;;8.60;6.93;;;;;;;3.81;nan;97124.72;5051790;28;20229;-72
2023/03/06 08:05:12;;;;;;;10.07;7.33;;;;;;;3.97;nan;97126.97;5052073;28;20235;-72
2023/03/06 08:07:39;;;;;;;8.53;6.80;;;;;;;4.00;nan;97131.00;5052704;28;20201;-72
2023/03/06 08:10:06;;;;;;;8.97;6.87;;;;;;;4.02;nan;97129.78;5056074;28;20201;-72
2023/03/06 08:12:32;;;;;;;8.23;6.47;;;;;;;4.17;nan;97125.19;5056125;28;20221;-72
2023/03/06 08:14:59;;;;;;;9.43;6.60;;;;;;;4.24;nan;97123.34;5055987;28;20213;-73
2023/03/06 08:17:25;;;;;;;8.57;6.97;;;;;;;4.30;nan;97127.78;5056007;28;20189;-72
2023/03/06 08:19:51;;;;;;;8.13;6.60;;;;;;;4.36;nan;97132.25;5055928;28;20213;-72
2023/03/06 08:22:18;;;;;;;8.83;6.30;;;;;;;4.44;nan;97128.63;5055933;28;20232;-72
2023/03/06 08:24:44;;;;;;;10.07;6.60;;;;;;;4.41;nan;97129.84;5055591;28;20235;-73
2023/03/06 08:27:10;;;;;;;7.97;6.60;;;;;;;4.54;nan;97124.56;5055876;28;20551;-73
2023/03/06 08:29:37;;;;;;;9.73;6.27;;;;;;;4.72;nan;97122.13;5055954;28;20209;-74
2023/03/06 08:32:03;;;;;;;8.83;5.97;;;;;;;4.60;nan;97128.19;5055717;28;20232;-73
2023/03/06 08:34:30;;;;;;;6.77;5.63;;;;;;;4.36;nan;97126.19;5055348;28;20560;-74
2023/03/06 08:36:56;;;;;;;8.70;6.60;;;;;;;4.71;nan;97125.75;5055288;28;20205;-74
2023/03/06 08:39:23;;;;;;;7.33;6.03;;;;;;;4.50;nan;97128.63;5054927;28;20207;-73
2023/03/06 08:41:49;;;;;;;7.27;6.30;;;;;;;4.74;nan;97130.59;5055434;28;20229;-74
2023/03/06 08:44:16;;;;;;;9.00;6.33;;;;;;;4.61;nan;97137.72;5055193;28;20310;-73
2023/03/06 08:46:42;;;;;;;9.13;6.53;;;;;;;4.71;nan;97130.22;5055078;28;20213;-74
2023/03/06 08:49:11;;;;;;;8.80;6.47;;;;;;;4.74;nan;97132.44;5055265;28;20208;-73
2023/03/06 08:51:38;;;;;;;6.40;5.53;;;;;;;4.95;nan;97132.19;5055109;28;20212;-74
2023/03/06 08:54:04;;;;;;;7.90;6.57;;;;;;;4.99;nan;97134.22;5055200;28;20201;-74
2023/03/06 08:56:43;;;;;;;7.20;6.40;;;;;;;5.00;nan;97137.66;5054769;28;20637;-73
2023/03/06 08:59:10;;;;;;;7.10;6.17;;;;;;;5.40;nan;97137.34;5052984;28;20687;-74
2023/03/06 09:01:38;;;;;;;9.90;6.47;;;;;;;5.00;nan;97138.47;5053820;28;20240;-74
2023/03/06 09:04:10;;;;;;;7.97;6.57;;;;;;;5.14;nan;97136.59;5055137;28;20236;-74
2023/03/06 09:06:40;;;;;;;8.27;6.87;;;;;;;4.97;nan;97130.97;5054795;28;20216;-73
2023/03/06 09:09:08;;;;;;;8.43;6.17;;;;;;;5.35;nan;97138.97;5054590;28;20210;-74
2023/03/06 09:11:34;;;;;;;7.00;6.07;;;;;;;5.16;nan;97131.94;5054932;28;20211;-74
2023/03/06 09:14:01;;;;;;;8.00;6.30;;;;;;;5.06;nan;97132.38;5054878;28;20205;-73
2023/03/06 09:16:27;;;;;;;7.87;6.07;;;;;;;5.19;nan;97144.69;5054703;28;20216;-74
2023/03/06 09:18:54;;;;;;;7.80;6.03;;;;;;;4.88;nan;97139.31;5054561;28;20217;-73
2023/03/06 09:21:22;;;;;;;7.07;5.90;;;;;;;5.20;nan;97141.06;5054907;28;20304;-74
2023/03/06 09:23:50;;;;;;;7.67;5.83;;;;;;;5.34;nan;97137.34;5054572;28;20221;-74
2023/03/06 09:26:16;;;;;;;6.57;5.57;;;;;;;5.03;nan;97145.97;5054444;28;20687;-74
2023/03/06 09:28:42;;;;;;;8.60;6.30;;;;;;;4.79;nan;97143.16;5054869;28;20209;-73
2023/03/06 09:31:17;;;;;;;8.13;5.90;;;;;;;5.00;nan;97150.81;5054568;28;20216;-74
2023/03/06 09:33:44;;;;;;;6.90;5.80;;;;;;;4.94;nan;97151.66;5054317;28;20707;-74
2023/03/06 09:36:15;;;;;;;6.63;6.00;;;;;;;4.87;nan;97156.91;5054615;28;20565;-73
2023/03/06 09:38:42;;;;;;;7.47;5.60;;;;;;;4.78;nan;97152.06;5055365;28;20194;-74
2023/03/06 09:41:15;;;;;;;7.67;6.10;;;;;;;4.85;nan;97147.59;5054683;28;20209;-73
2023/03/06 09:43:48;;;;;;;10.20;6.20;;;;;;;4.68;nan;97147.22;5054369;28;20228;-74
2023/03/06 09:46:31;;;;;;;10.30;5.70;;;;;;;4.76;nan;97151.47;5054295;28;20225;-73
2023/03/06 09:49:09;;;;;;;7.77;5.67;;;;;;;5.02;nan;97146.97;5054300;28;20211;-73
2023/03/06 09:51:53;;;;;;;6.77;5.60;;;;;;;4.79;nan;97148.44;5054288;28;20193;-74
2023/03/06 09:54:30;;;;;;;7.60;5.87;;;;;;;4.88;nan;97152.47;5054047;28;20253;-74
2023/03/06 09:56:56;;;;;;;6.60;5.50;;;;;;;4.75;nan;97145.38;5037456;28;20195;-74
2023/03/06 09:59:25;;;;;;;7.50;6.40;;;;;;;4.82;nan;97140.09;5054381;28;20205;-74
2023/03/06 10:02:17;;;;;;;11.33;6.43;;;;;;;4.48;nan;97158.78;5054218;28;20253;-73
2023/03/06 10:04:50;;;;;;;7.27;6.30;;;;;;;4.74;nan;97146.41;5053838;28;20221;-73
2023/03/06 10:07:24;;;;;;;8.77;6.50;;;;;;;4.81;nan;97147.22;5054032;28;20197;-73
2023/03/06 10:10:11;;;;;;;7.60;5.63;;;;;;;4.74;nan;97156.13;5054548;28;20220;-74
2023/03/06 10:12:46;;;;;;;7.53;6.43;;;;;;;4.88;nan;97147.22;5053949;28;20252;-74
2023/03/06 10:15:21;;;;;;;8.30;6.57;;;;;;;4.61;nan;97156.16;5053605;28;20209;-73
2023/03/06 10:17:47;;;;;;;7.43;6.13;;;;;;;4.70;nan;97152.28;5052749;28;20200;-74
2023/03/06 10:20:24;;;;;;;8.67;5.97;;;;;;;4.51;nan;97151.28;5054029;28;20201;-73
2023/03/06 10:23:19;;;;;;;8.27;6.97;;;;;;;4.55;nan;97149.03;5054038;28;20669;-74
2023/03/06 10:26:06;;;;;;;8.00;6.20;;;;;;;4.82;nan;97146.19;5053539;28;20213;-74
2023/03/06 10:28:42;;;;;;;7.47;5.70;;;;;;;4.92;nan;97153.66;5053662;28;20194;-73
2023/03/06 10:31:24;;;;;;;7.73;6.53;;;;;;;4.97;nan;97149.41;5052622;28;20196;-74
2023/03/06 10:34:09;;;;;;;7.77;5.97;;;;;;;5.17;nan;97147.56;5053300;28;20228;-74
2023/03/06 10:36:35;;;;;;;9.90;6.37;;;;;;;5.12;nan;97157.09;5053294;28;20198;-74
2023/03/06 10:39:09;;;;;;;6.90;6.03;;;;;;;4.87;nan;97148.19;5053427;28;20209;-74
2023/03/06 10:41:37;;;;;;;7.80;6.07;;;;;;;5.05;nan;97153.63;5053282;28;20563;-73
2023/03/06 10:44:03;;;;;;;6.97;5.80;;;;;;;5.16;nan;97153.81;5052882;28;20214;-73
2023/03/06 10:46:31;;;;;;;8.40;6.37;;;;;;;5.05;nan;97158.91;5052870;28;20229;-74
2023/03/06 10:49:00;;;;;;;7.30;5.73;;;;;;;5.09;nan;97150.41;5053158;28;20201;-74
2023/03/06 10:51:27;;;;;;;7.30;5.93;;;;;;;4.86;nan;97146.59;5052814;28;20204;-73
2023/03/06 10:54:20;;;;;;;7.90;6.43;;;;;;;4.80;nan;97155.31;5053013;28;20216;-73
2023/03/06 10:56:47;;;;;;;7.17;5.70;;;;;;;4.89;nan;97146.19;5052006;28;20209;-73
2023/03/06 10:59:15;;;;;;;6.30;5.50;;;;;;;5.11;nan;97152.84;5052485;28;20209;-73
2023/03/06 11:01:54;;;;;;;8.30;5.23;;;;;;;5.48;nan;97147.63;5052672;28;20205;-74
2023/03/06 11:04:29;;;;;;;8.17;6.00;;;;;;;5.59;nan;97152.25;5052974;28;20217;-74
2023/03/06 11:07:19;;;;;;;6.00;5.30;;;;;;;5.26;nan;97148.13;5052428;28;20555;-73
2023/03/06 11:10:19;;;;;;;7.67;5.73;;;;;;;5.39;nan;97146.22;5052752;28;20209;-73
2023/03/06 11:13:06;;;;;;;12.07;5.90;;;;;;;5.52;nan;97138.28;5052693;28;20265;-74
2023/03/06 11:15:32;;;;;;;8.57;6.40;;;;;;;5.58;nan;97144.56;5052622;28;20266;-73
2023/03/06 11:18:08;;;;;;;7.27;5.83;;;;;;;5.77;nan;97141.00;5052746;28;20205;-74
2023/03/06 11:20:43;;;;;;;8.73;5.67;;;;;;;5.83;nan;97142.84;5053055;28;20312;-74
2023/03/06 11:23:40;;;;;;;5.97;5.03;;;;;;;5.89;nan;97134.09;5052908;28;20228;-74
2023/03/06 11:26:16;;;;;;;7.67;5.63;;;;;;;5.79;nan;97141.63;5051416;28;20213;-73
2023/03/06 11:29:05;;;;;;;6.83;6.03;;;;;;;5.90;nan;97133.88;5052941;28;20191;-74
2023/03/06 11:31:35;;;;;;;7.60;5.47;;;;;;;5.90;nan;97128.59;5052514;28;20193;-74
2023/03/06 11:34:16;;;;;;;8.37;6.20;;;;;;;5.92;nan;97123.13;5052707;28;20205;-73
2023/03/06 11:37:06;;;;;;;7.37;6.13;;;;;;;6.02;nan;97128.72;5051355;28;20629;-74
2023/03/06 11:39:50;;;;;;;6.80;5.60;;;;;;;5.84;nan;97129.44;5052593;28;20189;-73
2023/03/06 11:42:36;;;;;;;7.57;5.60;;;;;;;5.92;nan;97125.75;5052665;28;20319;-74
2023/03/06 11:45:19;;;;;;;6.90;5.60;;;;;;;5.99;nan;97118.59;5056503;28;20209;-74
2023/03/06 11:48:11;;;;;;;6.50;5.80;;;;;;;6.03;nan;97117.16;5056836;28;20317;-74
2023/03/06 11:50:43;;;;;;;11.30;5.87;;;;;;;6.00;nan;97110.47;5053646;28;20209;-73
2023/03/06 11:53:22;;;;;;;7.63;6.00;;;;;;;6.51;nan;97111.09;5056268;28;20229;-74
2023/03/06 11:56:31;;;;;;;8.90;5.90;;;;;;;6.06;nan;97109.63;5055915;28;20192;-73
2023/03/06 11:59:22;;;;;;;7.27;5.77;;;;;;;5.93;nan;97095.72;5050486;28;20207;-73
2023/03/06 12:02:00;;;;;;;7.80;5.90;;;;;;;6.21;nan;97104.03;5056936;28;20221;-73
2023/03/06 12:04:41;;;;;;;8.53;6.33;;;;;;;6.32;nan;97090.13;5055844;28;20201;-73